sensor_id;sensor_type;location;lat;lon;timestamp;P1;durP1;ratioP1;P2;durP2;ratioP2
79454;SDS011;68900;52.134;5.420;2023-07-31T00:01:37;3.10;;;0.75;;
79454;SDS011;68900;52.134;5.420;2023-07-31T00:04:03;2.78;;;0.63;;
79454;SDS011;68900;52.134;5.420;2023-07-31T00:06:30;2.13;;;0.55;;
79454;SDS011;68900;52.134;5.420;2023-07-31T00:08:56;3.25;;;0.63;;
79454;SDS011;68900;52.134;5.420;2023-07-31T00:11:23;2.40;;;0.63;;
79454;SDS011;68900;52.134;5.420;2023-07-31T00:13:49;2.40;;;0.60;;
79454;SDS011;68900;52.134;5.420;2023-07-31T00:16:19;2.90;;;0.80;;
79454;SDS011;68900;52.134;5.420;2023-07-31T00:18:45;2.83;;;0.60;;
79454;SDS011;68900;52.134;5.420;2023-07-31T00:21:12;3.33;;;0.80;;
79454;SDS011;68900;52.134;5.420;2023-07-31T00:23:38;2.47;;;0.60;;
79454;SDS011;68900;52.134;5.420;2023-07-31T00:26:15;4.45;;;0.80;;
79454;SDS011;68900;52.134;5.420;2023-07-31T00:28:48;2.65;;;0.85;;
79454;SDS011;68900;52.134;5.420;2023-07-31T00:31:19;4.78;;;1.10;;
79454;SDS011;68900;52.134;5.420;2023-07-31T00:33:46;2.55;;;0.70;;
79454;SDS011;68900;52.134;5.420;2023-07-31T00:36:13;5.10;;;1.20;;
79454;SDS011;68900;52.134;5.420;2023-07-31T00:38:39;3.95;;;1.15;;
79454;SDS011;68900;52.134;5.420;2023-07-31T00:41:05;5.47;;;1.42;;
79454;SDS011;68900;52.134;5.420;2023-07-31T00:43:32;5.75;;;2.03;;
79454;SDS011;68900;52.134;5.420;2023-07-31T00:45:58;6.47;;;1.77;;
79454;SDS011;68900;52.134;5.420;2023-07-31T00:48:29;8.38;;;2.17;;
79454;SDS011;68900;52.134;5.420;2023-07-31T00:51:03;9.27;;;2.22;;
79454;SDS011;68900;52.134;5.420;2023-07-31T00:53:30;20.10;;;3.38;;
79454;SDS011;68900;52.134;5.420;2023-07-31T00:56:09;12.75;;;3.40;;
79454;SDS011;68900;52.134;5.420;2023-07-31T00:58:44;11.60;;;2.85;;
79454;SDS011;68900;52.134;5.420;2023-07-31T01:01:11;19.17;;;3.50;;
79454;SDS011;68900;52.134;5.420;2023-07-31T01:03:37;11.23;;;2.90;;
79454;SDS011;68900;52.134;5.420;2023-07-31T01:08:55;17.38;;;3.22;;
79454;SDS011;68900;52.134;5.420;2023-07-31T01:11:42;16.25;;;3.20;;
79454;SDS011;68900;52.134;5.420;2023-07-31T01:14:12;17.52;;;3.95;;
79454;SDS011;68900;52.134;5.420;2023-07-31T01:16:39;16.13;;;3.30;;
79454;SDS011;68900;52.134;5.420;2023-07-31T01:19:06;16.20;;;3.63;;
79454;SDS011;68900;52.134;5.420;2023-07-31T01:24:14;13.25;;;2.75;;
79454;SDS011;68900;52.134;5.420;2023-07-31T01:26:56;7.15;;;2.42;;
79454;SDS011;68900;52.134;5.420;2023-07-31T01:32:05;6.57;;;1.95;;
79454;SDS011;68900;52.134;5.420;2023-07-31T01:34:34;8.35;;;2.25;;
79454;SDS011;68900;52.134;5.420;2023-07-31T01:37:01;6.93;;;1.92;;
79454;SDS011;68900;52.134;5.420;2023-07-31T01:39:29;7.63;;;2.35;;
79454;SDS011;68900;52.134;5.420;2023-07-31T01:41:56;9.95;;;2.38;;
79454;SDS011;68900;52.134;5.420;2023-07-31T01:44:23;7.05;;;2.47;;
79454;SDS011;68900;52.134;5.420;2023-07-31T01:46:49;9.25;;;2.67;;
79454;SDS011;68900;52.134;5.420;2023-07-31T01:49:16;7.10;;;2.20;;
79454;SDS011;68900;52.134;5.420;2023-07-31T01:51:43;13.35;;;3.00;;
79454;SDS011;68900;52.134;5.420;2023-07-31T01:54:09;14.32;;;3.75;;
79454;SDS011;68900;52.134;5.420;2023-07-31T01:56:46;15.38;;;3.80;;
79454;SDS011;68900;52.134;5.420;2023-07-31T01:59:13;16.95;;;3.70;;
79454;SDS011;68900;52.134;5.420;2023-07-31T02:01:39;13.10;;;3.63;;
79454;SDS011;68900;52.134;5.420;2023-07-31T02:04:06;16.60;;;3.78;;
79454;SDS011;68900;52.134;5.420;2023-07-31T02:06:33;15.38;;;3.95;;
79454;SDS011;68900;52.134;5.420;2023-07-31T02:09:08;13.73;;;3.50;;
79454;SDS011;68900;52.134;5.420;2023-07-31T02:11:35;13.90;;;3.63;;
79454;SDS011;68900;52.134;5.420;2023-07-31T02:14:02;10.52;;;3.22;;
79454;SDS011;68900;52.134;5.420;2023-07-31T02:16:34;12.07;;;3.10;;
79454;SDS011;68900;52.134;5.420;2023-07-31T02:19:03;14.43;;;2.88;;
79454;SDS011;68900;52.134;5.420;2023-07-31T02:21:33;13.25;;;3.45;;
79454;SDS011;68900;52.134;5.420;2023-07-31T02:23:59;11.50;;;3.15;;
79454;SDS011;68900;52.134;5.420;2023-07-31T02:26:26;11.90;;;3.05;;
79454;SDS011;68900;52.134;5.420;2023-07-31T02:28:52;13.43;;;3.53;;
79454;SDS011;68900;52.134;5.420;2023-07-31T02:31:19;14.20;;;3.20;;
79454;SDS011;68900;52.134;5.420;2023-07-31T02:33:48;9.40;;;2.83;;
79454;SDS011;68900;52.134;5.420;2023-07-31T02:36:15;12.90;;;3.28;;
79454;SDS011;68900;52.134;5.420;2023-07-31T02:38:41;12.38;;;3.80;;
79454;SDS011;68900;52.134;5.420;2023-07-31T02:41:08;14.00;;;3.30;;
79454;SDS011;68900;52.134;5.420;2023-07-31T02:43:34;11.88;;;3.40;;
79454;SDS011;68900;52.134;5.420;2023-07-31T02:46:01;11.43;;;3.10;;
79454;SDS011;68900;52.134;5.420;2023-07-31T02:48:28;14.93;;;3.13;;
79454;SDS011;68900;52.134;5.420;2023-07-31T02:50:55;14.82;;;3.15;;
79454;SDS011;68900;52.134;5.420;2023-07-31T02:53:24;16.33;;;3.28;;
79454;SDS011;68900;52.134;5.420;2023-07-31T02:55:51;14.73;;;2.80;;
79454;SDS011;68900;52.134;5.420;2023-07-31T02:58:18;16.50;;;3.30;;
79454;SDS011;68900;52.134;5.420;2023-07-31T03:00:44;13.80;;;3.20;;
79454;SDS011;68900;52.134;5.420;2023-07-31T03:03:11;14.73;;;3.45;;
79454;SDS011;68900;52.134;5.420;2023-07-31T03:05:38;15.55;;;3.63;;
79454;SDS011;68900;52.134;5.420;2023-07-31T03:08:08;16.60;;;3.33;;
79454;SDS011;68900;52.134;5.420;2023-07-31T03:10:35;16.05;;;3.97;;
79454;SDS011;68900;52.134;5.420;2023-07-31T03:13:02;13.25;;;3.00;;
79454;SDS011;68900;52.134;5.420;2023-07-31T03:15:28;18.48;;;3.40;;
79454;SDS011;68900;52.134;5.420;2023-07-31T03:18:04;12.95;;;3.55;;
79454;SDS011;68900;52.134;5.420;2023-07-31T03:20:31;17.25;;;3.47;;
79454;SDS011;68900;52.134;5.420;2023-07-31T03:22:58;14.38;;;3.97;;
79454;SDS011;68900;52.134;5.420;2023-07-31T03:25:24;13.98;;;3.67;;
79454;SDS011;68900;52.134;5.420;2023-07-31T03:27:51;16.85;;;3.97;;
79454;SDS011;68900;52.134;5.420;2023-07-31T03:30:28;15.93;;;4.05;;
79454;SDS011;68900;52.134;5.420;2023-07-31T03:32:54;16.73;;;3.90;;
79454;SDS011;68900;52.134;5.420;2023-07-31T03:35:21;15.88;;;3.53;;
79454;SDS011;68900;52.134;5.420;2023-07-31T03:37:48;16.63;;;3.45;;
79454;SDS011;68900;52.134;5.420;2023-07-31T03:40:14;18.38;;;4.03;;
79454;SDS011;68900;52.134;5.420;2023-07-31T03:42:43;16.27;;;3.83;;
79454;SDS011;68900;52.134;5.420;2023-07-31T03:45:09;11.60;;;3.50;;
79454;SDS011;68900;52.134;5.420;2023-07-31T03:47:36;15.25;;;4.05;;
79454;SDS011;68900;52.134;5.420;2023-07-31T03:50:13;13.27;;;3.83;;
79454;SDS011;68900;52.134;5.420;2023-07-31T03:52:40;14.18;;;4.07;;
79454;SDS011;68900;52.134;5.420;2023-07-31T03:55:07;17.10;;;3.90;;
79454;SDS011;68900;52.134;5.420;2023-07-31T03:57:34;15.55;;;3.72;;
79454;SDS011;68900;52.134;5.420;2023-07-31T04:00:01;16.42;;;5.13;;
79454;SDS011;68900;52.134;5.420;2023-07-31T04:02:28;18.17;;;4.13;;
79454;SDS011;68900;52.134;5.420;2023-07-31T04:04:54;13.02;;;3.85;;
79454;SDS011;68900;52.134;5.420;2023-07-31T04:07:21;14.63;;;3.97;;
79454;SDS011;68900;52.134;5.420;2023-07-31T04:09:48;16.60;;;3.85;;
79454;SDS011;68900;52.134;5.420;2023-07-31T04:12:14;19.70;;;4.95;;
79454;SDS011;68900;52.134;5.420;2023-07-31T04:14:41;14.93;;;4.32;;
79454;SDS011;68900;52.134;5.420;2023-07-31T04:17:07;16.42;;;4.38;;
79454;SDS011;68900;52.134;5.420;2023-07-31T04:19:37;14.70;;;4.10;;
79454;SDS011;68900;52.134;5.420;2023-07-31T04:22:04;14.82;;;4.13;;
79454;SDS011;68900;52.134;5.420;2023-07-31T04:24:31;12.80;;;4.10;;
79454;SDS011;68900;52.134;5.420;2023-07-31T04:26:57;12.13;;;3.80;;
79454;SDS011;68900;52.134;5.420;2023-07-31T04:29:24;15.57;;;3.65;;
79454;SDS011;68900;52.134;5.420;2023-07-31T04:31:50;15.90;;;4.10;;
79454;SDS011;68900;52.134;5.420;2023-07-31T04:34:17;14.35;;;3.80;;
79454;SDS011;68900;52.134;5.420;2023-07-31T04:36:43;13.90;;;4.07;;
79454;SDS011;68900;52.134;5.420;2023-07-31T04:39:10;17.73;;;4.47;;
79454;SDS011;68900;52.134;5.420;2023-07-31T04:41:37;17.35;;;3.70;;
79454;SDS011;68900;52.134;5.420;2023-07-31T04:44:10;14.68;;;3.85;;
79454;SDS011;68900;52.134;5.420;2023-07-31T04:46:37;15.60;;;4.10;;
79454;SDS011;68900;52.134;5.420;2023-07-31T04:49:04;16.10;;;4.25;;
79454;SDS011;68900;52.134;5.420;2023-07-31T04:51:31;13.27;;;3.40;;
79454;SDS011;68900;52.134;5.420;2023-07-31T04:54:05;17.05;;;4.25;;
79454;SDS011;68900;52.134;5.420;2023-07-31T04:56:32;13.15;;;3.65;;
79454;SDS011;68900;52.134;5.420;2023-07-31T04:58:58;12.32;;;3.35;;
79454;SDS011;68900;52.134;5.420;2023-07-31T05:01:25;14.95;;;3.95;;
79454;SDS011;68900;52.134;5.420;2023-07-31T05:03:58;12.50;;;4.00;;
79454;SDS011;68900;52.134;5.420;2023-07-31T05:06:25;12.20;;;4.05;;
79454;SDS011;68900;52.134;5.420;2023-07-31T05:08:51;12.40;;;4.25;;
79454;SDS011;68900;52.134;5.420;2023-07-31T05:11:18;12.85;;;3.55;;
79454;SDS011;68900;52.134;5.420;2023-07-31T05:13:45;11.20;;;3.83;;
79454;SDS011;68900;52.134;5.420;2023-07-31T05:16:11;10.23;;;3.92;;
79454;SDS011;68900;52.134;5.420;2023-07-31T05:18:38;13.70;;;3.28;;
79454;SDS011;68900;52.134;5.420;2023-07-31T05:21:04;15.23;;;4.40;;
79454;SDS011;68900;52.134;5.420;2023-07-31T05:23:31;13.65;;;3.55;;
79454;SDS011;68900;52.134;5.420;2023-07-31T05:26:02;14.20;;;3.75;;
79454;SDS011;68900;52.134;5.420;2023-07-31T05:28:30;14.55;;;4.10;;
79454;SDS011;68900;52.134;5.420;2023-07-31T05:31:00;14.95;;;4.22;;
79454;SDS011;68900;52.134;5.420;2023-07-31T05:33:28;16.83;;;3.80;;
79454;SDS011;68900;52.134;5.420;2023-07-31T05:35:55;10.77;;;3.17;;
79454;SDS011;68900;52.134;5.420;2023-07-31T05:38:21;11.20;;;3.10;;
79454;SDS011;68900;52.134;5.420;2023-07-31T05:40:48;10.25;;;2.58;;
79454;SDS011;68900;52.134;5.420;2023-07-31T05:43:15;8.77;;;2.47;;
79454;SDS011;68900;52.134;5.420;2023-07-31T05:45:42;9.82;;;2.40;;
79454;SDS011;68900;52.134;5.420;2023-07-31T05:48:09;7.72;;;2.65;;
79454;SDS011;68900;52.134;5.420;2023-07-31T05:50:35;9.98;;;2.45;;
79454;SDS011;68900;52.134;5.420;2023-07-31T05:53:13;7.45;;;2.03;;
79454;SDS011;68900;52.134;5.420;2023-07-31T05:55:44;6.55;;;1.92;;
79454;SDS011;68900;52.134;5.420;2023-07-31T05:58:10;7.05;;;2.15;;
79454;SDS011;68900;52.134;5.420;2023-07-31T06:00:37;8.75;;;2.80;;
79454;SDS011;68900;52.134;5.420;2023-07-31T06:03:04;5.78;;;2.33;;
79454;SDS011;68900;52.134;5.420;2023-07-31T06:05:31;7.53;;;2.22;;
79454;SDS011;68900;52.134;5.420;2023-07-31T06:07:57;9.35;;;2.85;;
79454;SDS011;68900;52.134;5.420;2023-07-31T06:10:24;6.78;;;2.22;;
79454;SDS011;68900;52.134;5.420;2023-07-31T06:12:56;9.38;;;2.72;;
79454;SDS011;68900;52.134;5.420;2023-07-31T06:15:23;9.57;;;2.80;;
79454;SDS011;68900;52.134;5.420;2023-07-31T06:17:52;10.40;;;3.03;;
79454;SDS011;68900;52.134;5.420;2023-07-31T06:20:19;7.72;;;3.03;;
79454;SDS011;68900;52.134;5.420;2023-07-31T06:22:45;7.05;;;2.95;;
79454;SDS011;68900;52.134;5.420;2023-07-31T06:25:12;8.88;;;2.85;;
79454;SDS011;68900;52.134;5.420;2023-07-31T06:27:41;6.57;;;2.95;;
79454;SDS011;68900;52.134;5.420;2023-07-31T06:30:07;8.82;;;2.55;;
79454;SDS011;68900;52.134;5.420;2023-07-31T06:32:34;7.55;;;2.30;;
79454;SDS011;68900;52.134;5.420;2023-07-31T06:35:03;6.82;;;2.47;;
79454;SDS011;68900;52.134;5.420;2023-07-31T06:37:30;6.07;;;2.40;;
79454;SDS011;68900;52.134;5.420;2023-07-31T06:40:00;7.80;;;2.53;;
79454;SDS011;68900;52.134;5.420;2023-07-31T06:42:26;5.55;;;1.92;;
79454;SDS011;68900;52.134;5.420;2023-07-31T06:44:53;8.43;;;1.98;;
79454;SDS011;68900;52.134;5.420;2023-07-31T06:47:20;6.00;;;2.33;;
79454;SDS011;68900;52.134;5.420;2023-07-31T06:49:46;5.53;;;1.90;;
79454;SDS011;68900;52.134;5.420;2023-07-31T06:52:13;9.10;;;2.30;;
79454;SDS011;68900;52.134;5.420;2023-07-31T06:54:40;5.50;;;1.77;;
79454;SDS011;68900;52.134;5.420;2023-07-31T06:57:09;7.43;;;2.22;;
79454;SDS011;68900;52.134;5.420;2023-07-31T06:59:35;5.28;;;1.80;;
79454;SDS011;68900;52.134;5.420;2023-07-31T07:02:02;6.88;;;1.80;;
79454;SDS011;68900;52.134;5.420;2023-07-31T07:04:32;6.95;;;2.40;;
79454;SDS011;68900;52.134;5.420;2023-07-31T07:06:58;4.95;;;1.92;;
79454;SDS011;68900;52.134;5.420;2023-07-31T07:09:25;7.13;;;2.22;;
79454;SDS011;68900;52.134;5.420;2023-07-31T07:11:52;7.22;;;2.22;;
79454;SDS011;68900;52.134;5.420;2023-07-31T07:14:19;6.22;;;1.98;;
79454;SDS011;68900;52.134;5.420;2023-07-31T07:16:45;5.07;;;2.17;;
79454;SDS011;68900;52.134;5.420;2023-07-31T07:19:17;5.40;;;2.13;;
79454;SDS011;68900;52.134;5.420;2023-07-31T07:21:46;5.05;;;2.10;;
79454;SDS011;68900;52.134;5.420;2023-07-31T07:24:13;5.95;;;2.10;;
79454;SDS011;68900;52.134;5.420;2023-07-31T07:26:40;5.32;;;2.25;;
79454;SDS011;68900;52.134;5.420;2023-07-31T07:29:07;5.10;;;1.80;;
79454;SDS011;68900;52.134;5.420;2023-07-31T07:31:34;7.78;;;2.30;;
79454;SDS011;68900;52.134;5.420;2023-07-31T07:34:00;6.57;;;2.53;;
79454;SDS011;68900;52.134;5.420;2023-07-31T07:36:28;7.20;;;2.00;;
79454;SDS011;68900;52.134;5.420;2023-07-31T07:38:55;5.28;;;1.92;;
79454;SDS011;68900;52.134;5.420;2023-07-31T07:41:28;6.10;;;2.03;;
79454;SDS011;68900;52.134;5.420;2023-07-31T07:43:54;7.28;;;2.08;;
79454;SDS011;68900;52.134;5.420;2023-07-31T07:46:21;5.00;;;1.80;;
79454;SDS011;68900;52.134;5.420;2023-07-31T07:48:47;5.32;;;1.98;;
79454;SDS011;68900;52.134;5.420;2023-07-31T07:51:14;5.82;;;1.90;;
79454;SDS011;68900;52.134;5.420;2023-07-31T07:53:56;5.72;;;1.90;;
79454;SDS011;68900;52.134;5.420;2023-07-31T07:56:26;3.90;;;1.95;;
79454;SDS011;68900;52.134;5.420;2023-07-31T07:58:53;4.63;;;1.90;;
79454;SDS011;68900;52.134;5.420;2023-07-31T08:01:20;5.20;;;1.92;;
79454;SDS011;68900;52.134;5.420;2023-07-31T08:03:47;4.45;;;1.90;;
79454;SDS011;68900;52.134;5.420;2023-07-31T08:06:14;4.78;;;1.58;;
79454;SDS011;68900;52.134;5.420;2023-07-31T08:08:44;6.15;;;1.88;;
79454;SDS011;68900;52.134;5.420;2023-07-31T08:11:10;4.43;;;1.67;;
79454;SDS011;68900;52.134;5.420;2023-07-31T08:13:37;4.13;;;1.35;;
79454;SDS011;68900;52.134;5.420;2023-07-31T08:16:04;3.67;;;1.38;;
79454;SDS011;68900;52.134;5.420;2023-07-31T08:18:31;5.00;;;1.60;;
79454;SDS011;68900;52.134;5.420;2023-07-31T08:21:01;4.63;;;1.50;;
79454;SDS011;68900;52.134;5.420;2023-07-31T08:23:29;4.43;;;1.40;;
79454;SDS011;68900;52.134;5.420;2023-07-31T08:25:55;3.10;;;1.13;;
79454;SDS011;68900;52.134;5.420;2023-07-31T08:28:28;4.65;;;1.50;;
79454;SDS011;68900;52.134;5.420;2023-07-31T08:30:57;3.65;;;1.30;;
79454;SDS011;68900;52.134;5.420;2023-07-31T08:33:24;3.45;;;1.20;;
79454;SDS011;68900;52.134;5.420;2023-07-31T08:35:51;4.53;;;1.20;;
79454;SDS011;68900;52.134;5.420;2023-07-31T08:38:17;4.15;;;1.30;;
79454;SDS011;68900;52.134;5.420;2023-07-31T08:40:44;3.08;;;0.93;;
79454;SDS011;68900;52.134;5.420;2023-07-31T08:43:10;2.70;;;1.00;;
79454;SDS011;68900;52.134;5.420;2023-07-31T08:45:37;3.45;;;1.30;;
79454;SDS011;68900;52.134;5.420;2023-07-31T08:48:08;3.35;;;0.93;;
79454;SDS011;68900;52.134;5.420;2023-07-31T08:50:35;4.00;;;1.15;;
79454;SDS011;68900;52.134;5.420;2023-07-31T08:53:02;2.97;;;0.95;;
79454;SDS011;68900;52.134;5.420;2023-07-31T08:55:29;2.30;;;0.82;;
79454;SDS011;68900;52.134;5.420;2023-07-31T08:57:56;3.17;;;1.05;;
79454;SDS011;68900;52.134;5.420;2023-07-31T09:00:23;2.50;;;0.75;;
79454;SDS011;68900;52.134;5.420;2023-07-31T09:03:13;2.53;;;0.85;;
79454;SDS011;68900;52.134;5.420;2023-07-31T09:05:44;2.53;;;0.80;;
79454;SDS011;68900;52.134;5.420;2023-07-31T09:08:13;2.28;;;0.95;;
79454;SDS011;68900;52.134;5.420;2023-07-31T09:10:41;2.95;;;1.02;;
79454;SDS011;68900;52.134;5.420;2023-07-31T09:13:09;3.33;;;1.10;;
79454;SDS011;68900;52.134;5.420;2023-07-31T09:15:39;3.65;;;1.15;;
79454;SDS011;68900;52.134;5.420;2023-07-31T09:18:07;4.57;;;1.13;;
79454;SDS011;68900;52.134;5.420;2023-07-31T09:20:35;2.78;;;1.10;;
79454;SDS011;68900;52.134;5.420;2023-07-31T09:23:08;3.33;;;0.95;;
79454;SDS011;68900;52.134;5.420;2023-07-31T09:25:35;4.72;;;1.00;;
79454;SDS011;68900;52.134;5.420;2023-07-31T09:28:03;5.30;;;1.30;;
79454;SDS011;68900;52.134;5.420;2023-07-31T09:30:43;3.65;;;1.27;;
79454;SDS011;68900;52.134;5.420;2023-07-31T09:33:12;2.60;;;1.02;;
79454;SDS011;68900;52.134;5.420;2023-07-31T09:35:39;4.43;;;1.40;;
79454;SDS011;68900;52.134;5.420;2023-07-31T09:38:10;3.42;;;1.40;;
79454;SDS011;68900;52.134;5.420;2023-07-31T09:40:45;3.63;;;1.50;;
79454;SDS011;68900;52.134;5.420;2023-07-31T09:43:14;4.47;;;1.55;;
79454;SDS011;68900;52.134;5.420;2023-07-31T09:45:44;3.75;;;1.50;;
79454;SDS011;68900;52.134;5.420;2023-07-31T09:48:13;3.97;;;1.33;;
79454;SDS011;68900;52.134;5.420;2023-07-31T09:50:47;4.00;;;1.60;;
79454;SDS011;68900;52.134;5.420;2023-07-31T09:53:15;3.55;;;1.67;;
79454;SDS011;68900;52.134;5.420;2023-07-31T09:55:43;4.05;;;1.65;;
79454;SDS011;68900;52.134;5.420;2023-07-31T09:58:10;5.20;;;1.60;;
79454;SDS011;68900;52.134;5.420;2023-07-31T10:00:40;5.35;;;1.60;;
79454;SDS011;68900;52.134;5.420;2023-07-31T10:03:08;4.18;;;1.35;;
79454;SDS011;68900;52.134;5.420;2023-07-31T10:05:36;4.97;;;1.48;;
79454;SDS011;68900;52.134;5.420;2023-07-31T10:08:06;3.65;;;1.35;;
79454;SDS011;68900;52.134;5.420;2023-07-31T10:10:38;3.58;;;1.30;;
79454;SDS011;68900;52.134;5.420;2023-07-31T10:13:08;3.60;;;1.20;;
79454;SDS011;68900;52.134;5.420;2023-07-31T10:15:35;4.10;;;1.50;;
79454;SDS011;68900;52.134;5.420;2023-07-31T10:18:02;4.22;;;1.83;;
79454;SDS011;68900;52.134;5.420;2023-07-31T10:20:33;5.50;;;1.80;;
79454;SDS011;68900;52.134;5.420;2023-07-31T10:23:00;5.50;;;1.98;;
79454;SDS011;68900;52.134;5.420;2023-07-31T10:25:26;4.93;;;1.80;;
79454;SDS011;68900;52.134;5.420;2023-07-31T10:28:02;5.65;;;1.95;;
79454;SDS011;68900;52.134;5.420;2023-07-31T10:30:31;5.55;;;2.20;;
79454;SDS011;68900;52.134;5.420;2023-07-31T10:33:09;6.22;;;2.60;;
79454;SDS011;68900;52.134;5.420;2023-07-31T10:35:37;6.57;;;2.58;;
79454;SDS011;68900;52.134;5.420;2023-07-31T10:38:10;5.40;;;2.15;;
79454;SDS011;68900;52.134;5.420;2023-07-31T10:40:40;6.32;;;2.25;;
79454;SDS011;68900;52.134;5.420;2023-07-31T10:43:07;7.22;;;2.63;;
79454;SDS011;68900;52.134;5.420;2023-07-31T10:45:39;6.15;;;2.45;;
79454;SDS011;68900;52.134;5.420;2023-07-31T10:48:14;6.25;;;2.55;;
79454;SDS011;68900;52.134;5.420;2023-07-31T10:50:46;5.22;;;2.60;;
79454;SDS011;68900;52.134;5.420;2023-07-31T10:53:31;5.93;;;2.72;;
79454;SDS011;68900;52.134;5.420;2023-07-31T10:56:05;5.15;;;2.55;;
79454;SDS011;68900;52.134;5.420;2023-07-31T10:58:44;5.35;;;2.47;;
79454;SDS011;68900;52.134;5.420;2023-07-31T11:01:14;5.78;;;2.13;;
79454;SDS011;68900;52.134;5.420;2023-07-31T11:03:45;4.68;;;2.13;;
79454;SDS011;68900;52.134;5.420;2023-07-31T11:06:16;5.68;;;2.08;;
79454;SDS011;68900;52.134;5.420;2023-07-31T11:08:48;6.03;;;2.35;;
79454;SDS011;68900;52.134;5.420;2023-07-31T11:11:17;5.50;;;2.30;;
79454;SDS011;68900;52.134;5.420;2023-07-31T11:13:46;4.68;;;1.70;;
79454;SDS011;68900;52.134;5.420;2023-07-31T11:16:19;4.88;;;1.70;;
79454;SDS011;68900;52.134;5.420;2023-07-31T11:18:47;5.00;;;1.77;;
79454;SDS011;68900;52.134;5.420;2023-07-31T11:21:23;4.88;;;1.60;;
79454;SDS011;68900;52.134;5.420;2023-07-31T11:23:57;4.70;;;1.60;;
79454;SDS011;68900;52.134;5.420;2023-07-31T11:26:27;4.20;;;1.50;;
79454;SDS011;68900;52.134;5.420;2023-07-31T11:28:53;3.33;;;1.35;;
79454;SDS011;68900;52.134;5.420;2023-07-31T11:31:20;3.80;;;1.50;;
79454;SDS011;68900;52.134;5.420;2023-07-31T11:33:48;4.25;;;1.30;;
79454;SDS011;68900;52.134;5.420;2023-07-31T11:36:16;3.83;;;1.33;;
79454;SDS011;68900;52.134;5.420;2023-07-31T11:38:44;4.20;;;1.33;;
79454;SDS011;68900;52.134;5.420;2023-07-31T11:41:13;4.38;;;1.50;;
79454;SDS011;68900;52.134;5.420;2023-07-31T11:43:41;3.47;;;1.38;;
79454;SDS011;68900;52.134;5.420;2023-07-31T11:46:11;4.05;;;1.55;;
79454;SDS011;68900;52.134;5.420;2023-07-31T11:48:47;4.03;;;1.25;;
79454;SDS011;68900;52.134;5.420;2023-07-31T11:51:14;5.82;;;1.60;;
79454;SDS011;68900;52.134;5.420;2023-07-31T11:53:58;4.20;;;1.42;;
79454;SDS011;68900;52.134;5.420;2023-07-31T11:56:27;3.50;;;1.33;;
79454;SDS011;68900;52.134;5.420;2023-07-31T11:58:55;3.90;;;1.50;;
79454;SDS011;68900;52.134;5.420;2023-07-31T12:01:24;4.45;;;2.08;;
79454;SDS011;68900;52.134;5.420;2023-07-31T12:03:52;4.63;;;1.83;;
79454;SDS011;68900;52.134;5.420;2023-07-31T12:06:19;4.97;;;2.15;;
79454;SDS011;68900;52.134;5.420;2023-07-31T12:09:04;5.47;;;2.10;;
79454;SDS011;68900;52.134;5.420;2023-07-31T12:11:31;4.57;;;2.30;;
79454;SDS011;68900;52.134;5.420;2023-07-31T12:14:26;5.05;;;2.00;;
79454;SDS011;68900;52.134;5.420;2023-07-31T12:16:57;5.10;;;2.20;;
79454;SDS011;68900;52.134;5.420;2023-07-31T12:19:27;4.03;;;2.00;;
79454;SDS011;68900;52.134;5.420;2023-07-31T12:21:56;4.00;;;1.60;;
79454;SDS011;68900;52.134;5.420;2023-07-31T12:24:23;5.93;;;2.03;;
79454;SDS011;68900;52.134;5.420;2023-07-31T12:26:49;4.40;;;2.00;;
79454;SDS011;68900;52.134;5.420;2023-07-31T12:29:16;4.50;;;1.80;;
79454;SDS011;68900;52.134;5.420;2023-07-31T12:31:43;4.13;;;1.92;;
79454;SDS011;68900;52.134;5.420;2023-07-31T12:34:16;5.35;;;1.90;;
79454;SDS011;68900;52.134;5.420;2023-07-31T12:36:44;4.22;;;1.58;;
79454;SDS011;68900;52.134;5.420;2023-07-31T12:39:12;4.45;;;1.83;;
79454;SDS011;68900;52.134;5.420;2023-07-31T12:41:38;4.70;;;1.80;;
79454;SDS011;68900;52.134;5.420;2023-07-31T12:44:05;4.18;;;1.90;;
79454;SDS011;68900;52.134;5.420;2023-07-31T12:46:32;4.70;;;1.60;;
79454;SDS011;68900;52.134;5.420;2023-07-31T12:48:59;5.50;;;2.28;;
79454;SDS011;68900;52.134;5.420;2023-07-31T12:51:25;5.30;;;2.10;;
79454;SDS011;68900;52.134;5.420;2023-07-31T12:53:52;6.22;;;1.95;;
79454;SDS011;68900;52.134;5.420;2023-07-31T12:56:19;4.03;;;2.03;;
79454;SDS011;68900;52.134;5.420;2023-07-31T12:58:45;5.15;;;1.90;;
79454;SDS011;68900;52.134;5.420;2023-07-31T13:01:12;5.80;;;2.60;;
79454;SDS011;68900;52.134;5.420;2023-07-31T13:03:38;5.18;;;2.25;;
79454;SDS011;68900;52.134;5.420;2023-07-31T13:06:05;4.45;;;2.17;;
79454;SDS011;68900;52.134;5.420;2023-07-31T13:08:32;4.20;;;1.95;;
79454;SDS011;68900;52.134;5.420;2023-07-31T13:10:59;5.70;;;2.50;;
79454;SDS011;68900;52.134;5.420;2023-07-31T13:13:25;4.65;;;2.28;;
79454;SDS011;68900;52.134;5.420;2023-07-31T13:15:59;5.50;;;2.40;;
79454;SDS011;68900;52.134;5.420;2023-07-31T13:18:26;3.92;;;2.08;;
79454;SDS011;68900;52.134;5.420;2023-07-31T13:20:53;5.10;;;2.30;;
79454;SDS011;68900;52.134;5.420;2023-07-31T13:23:19;5.15;;;2.42;;
79454;SDS011;68900;52.134;5.420;2023-07-31T13:25:46;5.38;;;2.53;;
79454;SDS011;68900;52.134;5.420;2023-07-31T13:28:13;6.18;;;2.70;;
79454;SDS011;68900;52.134;5.420;2023-07-31T13:30:39;6.95;;;2.33;;
79454;SDS011;68900;52.134;5.420;2023-07-31T13:33:06;6.03;;;2.30;;
79454;SDS011;68900;52.134;5.420;2023-07-31T13:35:46;4.32;;;2.20;;
79454;SDS011;68900;52.134;5.420;2023-07-31T13:38:13;5.03;;;2.10;;
79454;SDS011;68900;52.134;5.420;2023-07-31T13:40:51;6.55;;;2.42;;
79454;SDS011;68900;52.134;5.420;2023-07-31T13:43:18;4.75;;;2.33;;
79454;SDS011;68900;52.134;5.420;2023-07-31T13:45:45;4.20;;;1.80;;
79454;SDS011;68900;52.134;5.420;2023-07-31T13:48:15;5.18;;;1.75;;
79454;SDS011;68900;52.134;5.420;2023-07-31T13:50:41;5.35;;;1.42;;
79454;SDS011;68900;52.134;5.420;2023-07-31T13:53:08;5.03;;;1.30;;
79454;SDS011;68900;52.134;5.420;2023-07-31T13:55:35;3.42;;;1.25;;
79454;SDS011;68900;52.134;5.420;2023-07-31T13:58:01;3.33;;;1.15;;
79454;SDS011;68900;52.134;5.420;2023-07-31T14:00:28;4.10;;;1.20;;
79454;SDS011;68900;52.134;5.420;2023-07-31T14:03:01;3.47;;;1.17;;
79454;SDS011;68900;52.134;5.420;2023-07-31T14:05:28;4.03;;;1.27;;
79454;SDS011;68900;52.134;5.420;2023-07-31T14:07:57;3.40;;;1.30;;
79454;SDS011;68900;52.134;5.420;2023-07-31T14:10:24;3.45;;;1.20;;
79454;SDS011;68900;52.134;5.420;2023-07-31T14:12:51;3.17;;;1.13;;
79454;SDS011;68900;52.134;5.420;2023-07-31T14:15:17;3.20;;;0.90;;
79454;SDS011;68900;52.134;5.420;2023-07-31T14:17:44;3.50;;;1.08;;
79454;SDS011;68900;52.134;5.420;2023-07-31T14:20:11;3.25;;;1.33;;
79454;SDS011;68900;52.134;5.420;2023-07-31T14:22:50;3.85;;;1.73;;
79454;SDS011;68900;52.134;5.420;2023-07-31T14:25:17;3.92;;;1.70;;
79454;SDS011;68900;52.134;5.420;2023-07-31T14:27:43;4.03;;;2.33;;
79454;SDS011;68900;52.134;5.420;2023-07-31T14:30:10;5.90;;;3.15;;
79454;SDS011;68900;52.134;5.420;2023-07-31T14:32:37;6.53;;;3.88;;
79454;SDS011;68900;52.134;5.420;2023-07-31T14:35:05;8.73;;;3.85;;
79454;SDS011;68900;52.134;5.420;2023-07-31T14:37:42;6.07;;;3.22;;
79454;SDS011;68900;52.134;5.420;2023-07-31T14:40:18;5.97;;;3.63;;
79454;SDS011;68900;52.134;5.420;2023-07-31T14:42:44;7.60;;;4.70;;
79454;SDS011;68900;52.134;5.420;2023-07-31T14:45:13;7.15;;;3.80;;
79454;SDS011;68900;52.134;5.420;2023-07-31T14:47:40;6.38;;;3.40;;
79454;SDS011;68900;52.134;5.420;2023-07-31T14:50:08;6.60;;;3.85;;
79454;SDS011;68900;52.134;5.420;2023-07-31T14:52:35;7.40;;;3.88;;
79454;SDS011;68900;52.134;5.420;2023-07-31T14:55:05;6.40;;;3.42;;
79454;SDS011;68900;52.134;5.420;2023-07-31T14:57:32;6.65;;;3.25;;
79454;SDS011;68900;52.134;5.420;2023-07-31T15:00:09;6.25;;;3.08;;